sensor_id;sensor_type;location;lat;lon;timestamp;P1;durP1;ratioP1;P2;durP2;ratioP2
17347;SDS011;8791;50.876;4.342;2022-07-17T00:00:25;2.63;;;1.30;;
17347;SDS011;8791;50.876;4.342;2022-07-17T00:02:52;4.80;;;1.55;;
17347;SDS011;8791;50.876;4.342;2022-07-17T00:05:19;4.82;;;1.90;;
17347;SDS011;8791;50.876;4.342;2022-07-17T00:07:46;8.70;;;1.73;;
17347;SDS011;8791;50.876;4.342;2022-07-17T00:10:13;4.55;;;1.50;;
17347;SDS011;8791;50.876;4.342;2022-07-17T00:12:41;4.13;;;1.77;;
17347;SDS011;8791;50.876;4.342;2022-07-17T00:15:10;6.43;;;1.70;;
17347;SDS011;8791;50.876;4.342;2022-07-17T00:17:37;3.85;;;1.85;;
17347;SDS011;8791;50.876;4.342;2022-07-17T00:20:04;8.07;;;2.03;;
17347;SDS011;8791;50.876;4.342;2022-07-17T00:22:33;3.63;;;1.73;;
17347;SDS011;8791;50.876;4.342;2022-07-17T00:25:00;4.75;;;1.63;;
17347;SDS011;8791;50.876;4.342;2022-07-17T00:27:27;5.22;;;1.60;;
17347;SDS011;8791;50.876;4.342;2022-07-17T00:29:53;3.47;;;1.70;;
17347;SDS011;8791;50.876;4.342;2022-07-17T00:32:22;2.83;;;1.60;;
17347;SDS011;8791;50.876;4.342;2022-07-17T00:34:49;5.87;;;1.90;;
17347;SDS011;8791;50.876;4.342;2022-07-17T00:37:16;4.60;;;1.43;;
17347;SDS011;8791;50.876;4.342;2022-07-17T00:39:43;3.33;;;1.30;;
17347;SDS011;8791;50.876;4.342;2022-07-17T00:42:10;4.13;;;1.80;;
17347;SDS011;8791;50.876;4.342;2022-07-17T00:44:38;6.73;;;1.80;;
17347;SDS011;8791;50.876;4.342;2022-07-17T00:47:09;7.63;;;1.73;;
17347;SDS011;8791;50.876;4.342;2022-07-17T00:49:39;3.53;;;1.83;;
17347;SDS011;8791;50.876;4.342;2022-07-17T00:52:06;4.60;;;1.93;;
17347;SDS011;8791;50.876;4.342;2022-07-17T00:54:34;5.30;;;1.80;;
17347;SDS011;8791;50.876;4.342;2022-07-17T00:57:03;7.83;;;1.60;;
17347;SDS011;8791;50.876;4.342;2022-07-17T00:59:32;5.47;;;1.90;;
17347;SDS011;8791;50.876;4.342;2022-07-17T01:02:02;4.13;;;1.70;;
17347;SDS011;8791;50.876;4.342;2022-07-17T01:04:29;4.83;;;2.20;;
17347;SDS011;8791;50.876;4.342;2022-07-17T01:06:58;7.10;;;1.43;;
17347;SDS011;8791;50.876;4.342;2022-07-17T01:09:26;7.63;;;1.80;;
17347;SDS011;8791;50.876;4.342;2022-07-17T01:11:53;9.25;;;1.77;;
17347;SDS011;8791;50.876;4.342;2022-07-17T01:14:20;4.60;;;2.57;;
17347;SDS011;8791;50.876;4.342;2022-07-17T01:16:49;4.28;;;1.75;;
17347;SDS011;8791;50.876;4.342;2022-07-17T01:19:16;5.28;;;1.70;;
17347;SDS011;8791;50.876;4.342;2022-07-17T01:21:45;7.03;;;2.17;;
17347;SDS011;8791;50.876;4.342;2022-07-17T01:24:14;10.35;;;1.98;;
17347;SDS011;8791;50.876;4.342;2022-07-17T01:26:42;8.23;;;1.85;;
17347;SDS011;8791;50.876;4.342;2022-07-17T01:29:09;8.00;;;1.92;;
17347;SDS011;8791;50.876;4.342;2022-07-17T01:31:37;5.43;;;1.70;;
17347;SDS011;8791;50.876;4.342;2022-07-17T01:34:05;8.17;;;2.20;;
17347;SDS011;8791;50.876;4.342;2022-07-17T01:36:33;5.50;;;2.35;;
17347;SDS011;8791;50.876;4.342;2022-07-17T01:39:02;6.22;;;1.80;;
17347;SDS011;8791;50.876;4.342;2022-07-17T01:41:29;7.80;;;1.98;;
17347;SDS011;8791;50.876;4.342;2022-07-17T01:43:56;3.90;;;1.50;;
17347;SDS011;8791;50.876;4.342;2022-07-17T01:46:23;6.47;;;1.70;;
17347;SDS011;8791;50.876;4.342;2022-07-17T01:48:51;13.77;;;2.17;;
17347;SDS011;8791;50.876;4.342;2022-07-17T01:51:17;7.35;;;1.63;;
17347;SDS011;8791;50.876;4.342;2022-07-17T01:53:44;5.10;;;2.25;;
17347;SDS011;8791;50.876;4.342;2022-07-17T01:56:12;4.07;;;1.77;;
17347;SDS011;8791;50.876;4.342;2022-07-17T01:58:39;7.10;;;1.83;;
17347;SDS011;8791;50.876;4.342;2022-07-17T02:01:06;7.03;;;1.77;;
17347;SDS011;8791;50.876;4.342;2022-07-17T02:03:33;7.72;;;2.15;;
17347;SDS011;8791;50.876;4.342;2022-07-17T02:06:00;5.35;;;1.75;;
17347;SDS011;8791;50.876;4.342;2022-07-17T02:08:26;6.70;;;1.70;;
17347;SDS011;8791;50.876;4.342;2022-07-17T02:10:53;3.95;;;1.95;;
17347;SDS011;8791;50.876;4.342;2022-07-17T02:13:21;8.97;;;2.13;;
17347;SDS011;8791;50.876;4.342;2022-07-17T02:15:49;11.70;;;2.70;;
17347;SDS011;8791;50.876;4.342;2022-07-17T02:18:16;4.07;;;2.00;;
17347;SDS011;8791;50.876;4.342;2022-07-17T02:20:43;10.30;;;2.00;;
17347;SDS011;8791;50.876;4.342;2022-07-17T02:23:14;5.30;;;2.00;;
17347;SDS011;8791;50.876;4.342;2022-07-17T02:25:41;5.07;;;2.30;;
17347;SDS011;8791;50.876;4.342;2022-07-17T02:28:08;5.83;;;2.53;;
17347;SDS011;8791;50.876;4.342;2022-07-17T02:30:36;6.17;;;1.90;;
17347;SDS011;8791;50.876;4.342;2022-07-17T02:33:03;3.57;;;2.07;;
17347;SDS011;8791;50.876;4.342;2022-07-17T02:35:31;4.37;;;1.70;;
17347;SDS011;8791;50.876;4.342;2022-07-17T02:37:59;8.57;;;2.67;;
17347;SDS011;8791;50.876;4.342;2022-07-17T02:40:26;8.13;;;2.40;;
17347;SDS011;8791;50.876;4.342;2022-07-17T02:42:53;3.87;;;1.97;;
17347;SDS011;8791;50.876;4.342;2022-07-17T02:45:20;8.70;;;2.50;;
17347;SDS011;8791;50.876;4.342;2022-07-17T02:47:51;4.37;;;2.13;;
17347;SDS011;8791;50.876;4.342;2022-07-17T02:50:19;7.60;;;2.40;;
17347;SDS011;8791;50.876;4.342;2022-07-17T02:52:46;4.77;;;2.23;;
17347;SDS011;8791;50.876;4.342;2022-07-17T02:55:14;6.37;;;2.20;;
17347;SDS011;8791;50.876;4.342;2022-07-17T02:57:41;11.00;;;2.33;;
17347;SDS011;8791;50.876;4.342;2022-07-17T03:00:10;5.87;;;2.30;;
17347;SDS011;8791;50.876;4.342;2022-07-17T03:02:40;5.07;;;2.47;;
17347;SDS011;8791;50.876;4.342;2022-07-17T03:05:09;6.17;;;2.40;;
17347;SDS011;8791;50.876;4.342;2022-07-17T03:07:35;5.27;;;2.57;;
17347;SDS011;8791;50.876;4.342;2022-07-17T03:10:03;9.37;;;2.60;;
17347;SDS011;8791;50.876;4.342;2022-07-17T03:12:31;20.80;;;2.57;;
17347;SDS011;8791;50.876;4.342;2022-07-17T03:14:57;3.93;;;2.23;;
17347;SDS011;8791;50.876;4.342;2022-07-17T03:17:24;5.63;;;2.50;;
17347;SDS011;8791;50.876;4.342;2022-07-17T03:19:51;9.70;;;2.53;;
17347;SDS011;8791;50.876;4.342;2022-07-17T03:22:19;5.87;;;2.37;;
17347;SDS011;8791;50.876;4.342;2022-07-17T03:24:46;5.03;;;2.03;;
17347;SDS011;8791;50.876;4.342;2022-07-17T03:27:13;11.77;;;2.10;;
17347;SDS011;8791;50.876;4.342;2022-07-17T03:29:40;5.73;;;2.40;;
17347;SDS011;8791;50.876;4.342;2022-07-17T03:32:07;6.53;;;2.97;;
17347;SDS011;8791;50.876;4.342;2022-07-17T03:34:34;6.60;;;2.33;;
17347;SDS011;8791;50.876;4.342;2022-07-17T03:37:00;9.77;;;2.37;;
17347;SDS011;8791;50.876;4.342;2022-07-17T03:39:30;6.77;;;2.03;;
17347;SDS011;8791;50.876;4.342;2022-07-17T03:41:57;4.87;;;2.30;;
17347;SDS011;8791;50.876;4.342;2022-07-17T03:44:24;8.87;;;2.30;;
17347;SDS011;8791;50.876;4.342;2022-07-17T03:46:51;8.90;;;2.90;;
17347;SDS011;8791;50.876;4.342;2022-07-17T03:49:18;6.23;;;2.60;;
17347;SDS011;8791;50.876;4.342;2022-07-17T03:51:45;5.70;;;2.27;;
17347;SDS011;8791;50.876;4.342;2022-07-17T03:54:12;11.10;;;2.70;;
17347;SDS011;8791;50.876;4.342;2022-07-17T03:56:40;6.63;;;2.63;;
17347;SDS011;8791;50.876;4.342;2022-07-17T03:59:07;12.47;;;2.87;;
17347;SDS011;8791;50.876;4.342;2022-07-17T04:01:34;7.33;;;2.80;;
17347;SDS011;8791;50.876;4.342;2022-07-17T04:04:01;10.30;;;2.80;;
17347;SDS011;8791;50.876;4.342;2022-07-17T04:06:28;7.67;;;2.80;;
17347;SDS011;8791;50.876;4.342;2022-07-17T04:08:55;7.53;;;2.40;;
17347;SDS011;8791;50.876;4.342;2022-07-17T04:11:23;8.40;;;2.60;;
17347;SDS011;8791;50.876;4.342;2022-07-17T04:13:51;6.50;;;2.20;;
17347;SDS011;8791;50.876;4.342;2022-07-17T04:16:18;7.93;;;2.70;;
17347;SDS011;8791;50.876;4.342;2022-07-17T04:18:45;9.73;;;2.63;;
17347;SDS011;8791;50.876;4.342;2022-07-17T04:21:12;4.17;;;2.20;;
17347;SDS011;8791;50.876;4.342;2022-07-17T04:23:39;4.47;;;2.07;;
17347;SDS011;8791;50.876;4.342;2022-07-17T04:26:06;5.47;;;2.40;;
17347;SDS011;8791;50.876;4.342;2022-07-17T04:28:33;9.73;;;3.27;;
17347;SDS011;8791;50.876;4.342;2022-07-17T04:31:01;6.00;;;2.53;;
17347;SDS011;8791;50.876;4.342;2022-07-17T04:33:28;7.70;;;2.20;;
17347;SDS011;8791;50.876;4.342;2022-07-17T04:35:55;11.47;;;2.37;;
17347;SDS011;8791;50.876;4.342;2022-07-17T04:38:22;8.87;;;2.87;;
17347;SDS011;8791;50.876;4.342;2022-07-17T04:40:49;5.43;;;2.40;;
17347;SDS011;8791;50.876;4.342;2022-07-17T04:43:16;4.85;;;2.60;;
17347;SDS011;8791;50.876;4.342;2022-07-17T04:45:42;8.35;;;2.33;;
17347;SDS011;8791;50.876;4.342;2022-07-17T04:48:10;6.00;;;2.35;;
17347;SDS011;8791;50.876;4.342;2022-07-17T04:50:37;9.82;;;2.45;;
17347;SDS011;8791;50.876;4.342;2022-07-17T04:53:04;8.45;;;2.65;;
17347;SDS011;8791;50.876;4.342;2022-07-17T04:55:32;9.55;;;2.67;;
17347;SDS011;8791;50.876;4.342;2022-07-17T04:57:59;4.30;;;2.25;;
17347;SDS011;8791;50.876;4.342;2022-07-17T05:00:26;7.05;;;2.72;;
17347;SDS011;8791;50.876;4.342;2022-07-17T05:02:53;9.63;;;2.28;;
17347;SDS011;8791;50.876;4.342;2022-07-17T05:05:21;6.13;;;2.55;;
17347;SDS011;8791;50.876;4.342;2022-07-17T05:07:48;5.68;;;3.00;;
17347;SDS011;8791;50.876;4.342;2022-07-17T05:10:15;4.35;;;2.47;;
17347;SDS011;8791;50.876;4.342;2022-07-17T05:12:42;5.22;;;2.40;;
17347;SDS011;8791;50.876;4.342;2022-07-17T05:15:09;5.20;;;2.50;;
17347;SDS011;8791;50.876;4.342;2022-07-17T05:17:36;7.50;;;2.80;;
17347;SDS011;8791;50.876;4.342;2022-07-17T05:20:03;7.43;;;2.50;;
17347;SDS011;8791;50.876;4.342;2022-07-17T05:22:32;6.25;;;2.70;;
17347;SDS011;8791;50.876;4.342;2022-07-17T05:24:59;10.10;;;2.95;;
17347;SDS011;8791;50.876;4.342;2022-07-17T05:27:26;7.03;;;2.72;;
17347;SDS011;8791;50.876;4.342;2022-07-17T05:29:53;4.53;;;2.40;;
17347;SDS011;8791;50.876;4.342;2022-07-17T05:32:20;5.97;;;2.03;;
17347;SDS011;8791;50.876;4.342;2022-07-17T05:34:47;4.82;;;2.42;;
17347;SDS011;8791;50.876;4.342;2022-07-17T05:37:15;10.25;;;2.75;;
17347;SDS011;8791;50.876;4.342;2022-07-17T05:39:43;4.00;;;2.35;;
17347;SDS011;8791;50.876;4.342;2022-07-17T05:42:10;3.55;;;2.08;;
17347;SDS011;8791;50.876;4.342;2022-07-17T05:44:36;6.88;;;2.70;;
17347;SDS011;8791;50.876;4.342;2022-07-17T05:47:03;7.95;;;2.35;;
17347;SDS011;8791;50.876;4.342;2022-07-17T05:49:30;7.75;;;2.33;;
17347;SDS011;8791;50.876;4.342;2022-07-17T05:51:57;7.03;;;2.55;;
17347;SDS011;8791;50.876;4.342;2022-07-17T05:54:24;7.53;;;2.40;;
17347;SDS011;8791;50.876;4.342;2022-07-17T05:56:52;11.68;;;2.45;;
17347;SDS011;8791;50.876;4.342;2022-07-17T05:59:19;6.03;;;2.20;;
17347;SDS011;8791;50.876;4.342;2022-07-17T06:01:46;8.65;;;2.53;;
17347;SDS011;8791;50.876;4.342;2022-07-17T06:04:13;9.60;;;3.05;;
17347;SDS011;8791;50.876;4.342;2022-07-17T06:06:40;6.93;;;2.47;;
17347;SDS011;8791;50.876;4.342;2022-07-17T06:09:07;5.83;;;2.60;;
17347;SDS011;8791;50.876;4.342;2022-07-17T06:11:34;5.63;;;2.10;;
17347;SDS011;8791;50.876;4.342;2022-07-17T06:14:02;6.80;;;2.50;;
17347;SDS011;8791;50.876;4.342;2022-07-17T06:16:29;6.47;;;2.73;;
17347;SDS011;8791;50.876;4.342;2022-07-17T06:18:56;7.00;;;2.50;;
17347;SDS011;8791;50.876;4.342;2022-07-17T06:21:23;5.53;;;2.63;;
17347;SDS011;8791;50.876;4.342;2022-07-17T06:23:50;5.80;;;2.50;;
17347;SDS011;8791;50.876;4.342;2022-07-17T06:26:17;4.83;;;2.50;;
17347;SDS011;8791;50.876;4.342;2022-07-17T06:28:44;7.30;;;2.27;;
17347;SDS011;8791;50.876;4.342;2022-07-17T06:31:12;5.07;;;2.33;;
17347;SDS011;8791;50.876;4.342;2022-07-17T06:33:39;6.43;;;2.27;;
17347;SDS011;8791;50.876;4.342;2022-07-17T06:36:06;6.20;;;2.30;;
17347;SDS011;8791;50.876;4.342;2022-07-17T06:38:33;8.87;;;2.63;;
17347;SDS011;8791;50.876;4.342;2022-07-17T06:41:00;4.05;;;2.03;;
17347;SDS011;8791;50.876;4.342;2022-07-17T06:43:27;8.43;;;2.17;;
17347;SDS011;8791;50.876;4.342;2022-07-17T06:45:54;3.80;;;2.42;;
17347;SDS011;8791;50.876;4.342;2022-07-17T06:48:23;8.70;;;2.60;;
17347;SDS011;8791;50.876;4.342;2022-07-17T06:50:50;5.53;;;2.58;;
17347;SDS011;8791;50.876;4.342;2022-07-17T06:53:17;7.72;;;1.95;;
17347;SDS011;8791;50.876;4.342;2022-07-17T06:55:44;6.45;;;2.10;;
17347;SDS011;8791;50.876;4.342;2022-07-17T06:58:11;6.90;;;2.05;;
17347;SDS011;8791;50.876;4.342;2022-07-17T07:00:38;9.10;;;2.40;;
17347;SDS011;8791;50.876;4.342;2022-07-17T07:03:05;4.32;;;1.70;;
17347;SDS011;8791;50.876;4.342;2022-07-17T07:05:34;5.07;;;2.00;;
17347;SDS011;8791;50.876;4.342;2022-07-17T07:08:01;6.72;;;1.75;;
17347;SDS011;8791;50.876;4.342;2022-07-17T07:10:28;8.70;;;2.75;;
17347;SDS011;8791;50.876;4.342;2022-07-17T07:12:55;4.80;;;1.95;;
17347;SDS011;8791;50.876;4.342;2022-07-17T07:15:22;5.55;;;1.80;;
17347;SDS011;8791;50.876;4.342;2022-07-17T07:17:50;5.88;;;2.05;;
17347;SDS011;8791;50.876;4.342;2022-07-17T07:20:18;9.07;;;1.67;;
17347;SDS011;8791;50.876;4.342;2022-07-17T07:22:46;12.95;;;2.25;;
17347;SDS011;8791;50.876;4.342;2022-07-17T07:25:13;6.57;;;2.22;;
17347;SDS011;8791;50.876;4.342;2022-07-17T07:27:40;11.77;;;2.47;;
17347;SDS011;8791;50.876;4.342;2022-07-17T07:30:07;6.70;;;1.92;;
17347;SDS011;8791;50.876;4.342;2022-07-17T07:32:35;8.48;;;2.35;;
17347;SDS011;8791;50.876;4.342;2022-07-17T07:35:03;10.15;;;2.58;;
17347;SDS011;8791;50.876;4.342;2022-07-17T07:37:30;7.82;;;1.80;;
17347;SDS011;8791;50.876;4.342;2022-07-17T07:39:58;10.45;;;2.65;;
17347;SDS011;8791;50.876;4.342;2022-07-17T07:42:25;8.00;;;1.75;;
17347;SDS011;8791;50.876;4.342;2022-07-17T07:44:52;3.90;;;2.15;;
17347;SDS011;8791;50.876;4.342;2022-07-17T07:47:20;6.22;;;2.40;;
17347;SDS011;8791;50.876;4.342;2022-07-17T07:49:46;6.82;;;2.30;;
17347;SDS011;8791;50.876;4.342;2022-07-17T07:52:13;9.63;;;2.35;;
17347;SDS011;8791;50.876;4.342;2022-07-17T07:54:40;8.88;;;2.45;;
17347;SDS011;8791;50.876;4.342;2022-07-17T07:57:08;12.30;;;2.55;;
17347;SDS011;8791;50.876;4.342;2022-07-17T07:59:35;6.60;;;2.25;;
17347;SDS011;8791;50.876;4.342;2022-07-17T08:02:03;7.85;;;2.03;;
17347;SDS011;8791;50.876;4.342;2022-07-17T08:04:30;7.75;;;2.05;;
17347;SDS011;8791;50.876;4.342;2022-07-17T08:06:57;5.65;;;2.00;;
17347;SDS011;8791;50.876;4.342;2022-07-17T08:09:24;8.40;;;2.05;;
17347;SDS011;8791;50.876;4.342;2022-07-17T08:11:51;13.05;;;2.42;;
17347;SDS011;8791;50.876;4.342;2022-07-17T08:14:19;4.82;;;1.80;;
17347;SDS011;8791;50.876;4.342;2022-07-17T08:16:46;8.98;;;2.15;;
17347;SDS011;8791;50.876;4.342;2022-07-17T08:19:13;8.02;;;2.33;;
17347;SDS011;8791;50.876;4.342;2022-07-17T08:21:40;4.85;;;1.80;;
17347;SDS011;8791;50.876;4.342;2022-07-17T08:24:07;11.63;;;2.22;;
17347;SDS011;8791;50.876;4.342;2022-07-17T08:26:34;4.65;;;1.85;;
17347;SDS011;8791;50.876;4.342;2022-07-17T08:29:01;20.58;;;3.35;;
17347;SDS011;8791;50.876;4.342;2022-07-17T08:31:30;5.07;;;1.80;;
17347;SDS011;8791;50.876;4.342;2022-07-17T08:33:57;6.57;;;1.83;;
17347;SDS011;8791;50.876;4.342;2022-07-17T08:36:24;2.50;;;1.27;;
17347;SDS011;8791;50.876;4.342;2022-07-17T08:38:51;8.82;;;1.70;;
17347;SDS011;8791;50.876;4.342;2022-07-17T08:41:18;8.38;;;1.73;;
17347;SDS011;8791;50.876;4.342;2022-07-17T08:43:47;5.70;;;1.90;;
17347;SDS011;8791;50.876;4.342;2022-07-17T08:46:16;5.85;;;1.48;;
17347;SDS011;8791;50.876;4.342;2022-07-17T08:48:46;2.58;;;1.20;;
17347;SDS011;8791;50.876;4.342;2022-07-17T08:51:15;7.35;;;1.60;;
17347;SDS011;8791;50.876;4.342;2022-07-17T08:53:43;3.50;;;1.27;;
17347;SDS011;8791;50.876;4.342;2022-07-17T08:56:10;12.73;;;1.60;;
17347;SDS011;8791;50.876;4.342;2022-07-17T08:58:38;8.88;;;1.80;;
17347;SDS011;8791;50.876;4.342;2022-07-17T09:01:05;4.15;;;1.55;;
17347;SDS011;8791;50.876;4.342;2022-07-17T09:03:32;4.45;;;1.33;;
17347;SDS011;8791;50.876;4.342;2022-07-17T09:06:03;7.72;;;1.60;;
17347;SDS011;8791;50.876;4.342;2022-07-17T09:08:30;8.52;;;1.70;;
17347;SDS011;8791;50.876;4.342;2022-07-17T09:10:58;8.02;;;1.35;;
17347;SDS011;8791;50.876;4.342;2022-07-17T09:13:26;4.35;;;1.65;;
17347;SDS011;8791;50.876;4.342;2022-07-17T09:16:08;5.60;;;1.65;;
17347;SDS011;8791;50.876;4.342;2022-07-17T09:18:42;4.18;;;1.65;;
17347;SDS011;8791;50.876;4.342;2022-07-17T09:21:15;4.90;;;1.70;;
17347;SDS011;8791;50.876;4.342;2022-07-17T09:23:45;6.72;;;1.70;;
17347;SDS011;8791;50.876;4.342;2022-07-17T09:26:22;4.32;;;1.15;;
17347;SDS011;8791;50.876;4.342;2022-07-17T09:28:49;5.47;;;1.75;;
17347;SDS011;8791;50.876;4.342;2022-07-17T09:31:23;7.93;;;1.50;;
17347;SDS011;8791;50.876;4.342;2022-07-17T09:33:51;6.03;;;1.45;;
17347;SDS011;8791;50.876;4.342;2022-07-17T09:36:19;4.50;;;1.60;;
17347;SDS011;8791;50.876;4.342;2022-07-17T09:38:52;4.40;;;2.00;;
17347;SDS011;8791;50.876;4.342;2022-07-17T09:41:20;7.22;;;2.00;;
17347;SDS011;8791;50.876;4.342;2022-07-17T09:43:50;4.03;;;2.08;;
17347;SDS011;8791;50.876;4.342;2022-07-17T09:46:19;8.68;;;1.88;;
17347;SDS011;8791;50.876;4.342;2022-07-17T09:48:48;5.93;;;1.60;;
17347;SDS011;8791;50.876;4.342;2022-07-17T09:51:22;9.18;;;2.25;;
17347;SDS011;8791;50.876;4.342;2022-07-17T09:53:54;5.70;;;1.65;;
17347;SDS011;8791;50.876;4.342;2022-07-17T09:56:23;7.22;;;1.67;;
17347;SDS011;8791;50.876;4.342;2022-07-17T09:58:52;7.70;;;1.83;;
17347;SDS011;8791;50.876;4.342;2022-07-17T10:01:22;4.38;;;1.45;;
17347;SDS011;8791;50.876;4.342;2022-07-17T10:03:49;2.97;;;1.70;;
17347;SDS011;8791;50.876;4.342;2022-07-17T10:06:18;4.00;;;1.98;;
17347;SDS011;8791;50.876;4.342;2022-07-17T10:08:46;6.00;;;1.95;;
17347;SDS011;8791;50.876;4.342;2022-07-17T10:11:14;8.30;;;1.58;;
17347;SDS011;8791;50.876;4.342;2022-07-17T10:13:45;8.48;;;1.58;;
17347;SDS011;8791;50.876;4.342;2022-07-17T10:16:12;4.53;;;1.70;;
17347;SDS011;8791;50.876;4.342;2022-07-17T10:18:40;5.82;;;2.13;;
17347;SDS011;8791;50.876;4.342;2022-07-17T10:21:12;4.18;;;1.75;;
17347;SDS011;8791;50.876;4.342;2022-07-17T10:23:40;6.72;;;1.80;;
17347;SDS011;8791;50.876;4.342;2022-07-17T10:26:09;9.68;;;2.17;;
17347;SDS011;8791;50.876;4.342;2022-07-17T10:28:40;5.55;;;1.73;;
17347;SDS011;8791;50.876;4.342;2022-07-17T10:31:09;5.80;;;1.98;;
17347;SDS011;8791;50.876;4.342;2022-07-17T10:33:36;4.78;;;2.10;;
17347;SDS011;8791;50.876;4.342;2022-07-17T10:36:03;3.72;;;2.00;;
17347;SDS011;8791;50.876;4.342;2022-07-17T10:38:40;3.88;;;1.88;;
17347;SDS011;8791;50.876;4.342;2022-07-17T10:41:09;7.85;;;2.72;;
17347;SDS011;8791;50.876;4.342;2022-07-17T10:43:47;4.30;;;2.25;;
17347;SDS011;8791;50.876;4.342;2022-07-17T10:46:15;4.50;;;1.88;;
17347;SDS011;8791;50.876;4.342;2022-07-17T10:48:42;7.55;;;2.47;;
17347;SDS011;8791;50.876;4.342;2022-07-17T10:51:14;4.07;;;2.80;;
17347;SDS011;8791;50.876;4.342;2022-07-17T10:53:42;4.50;;;2.42;;
17347;SDS011;8791;50.876;4.342;2022-07-17T10:56:10;8.65;;;2.63;;
17347;SDS011;8791;50.876;4.342;2022-07-17T10:58:38;4.35;;;2.78;;
17347;SDS011;8791;50.876;4.342;2022-07-17T11:01:07;6.32;;;2.65;;
17347;SDS011;8791;50.876;4.342;2022-07-17T11:03:38;5.85;;;2.20;;
17347;SDS011;8791;50.876;4.342;2022-07-17T11:06:10;3.75;;;2.30;;
17347;SDS011;8791;50.876;4.342;2022-07-17T11:08:41;5.32;;;2.58;;
17347;SDS011;8791;50.876;4.342;2022-07-17T11:11:10;6.63;;;2.65;;
17347;SDS011;8791;50.876;4.342;2022-07-17T11:13:37;4.90;;;2.80;;
17347;SDS011;8791;50.876;4.342;2022-07-17T11:16:05;5.93;;;2.70;;
17347;SDS011;8791;50.876;4.342;2022-07-17T11:18:32;3.67;;;2.55;;
17347;SDS011;8791;50.876;4.342;2022-07-17T11:21:01;14.10;;;2.55;;
17347;SDS011;8791;50.876;4.342;2022-07-17T11:23:30;6.15;;;2.55;;
17347;SDS011;8791;50.876;4.342;2022-07-17T11:25:59;8.85;;;2.90;;
17347;SDS011;8791;50.876;4.342;2022-07-17T11:28:31;7.40;;;2.42;;
17347;SDS011;8791;50.876;4.342;2022-07-17T11:31:02;3.78;;;2.55;;
17347;SDS011;8791;50.876;4.342;2022-07-17T11:33:45;5.63;;;3.15;;
17347;SDS011;8791;50.876;4.342;2022-07-17T11:36:15;5.15;;;3.03;;
17347;SDS011;8791;50.876;4.342;2022-07-17T11:38:49;4.25;;;2.28;;
17347;SDS011;8791;50.876;4.342;2022-07-17T11:41:17;7.65;;;2.85;;
17347;SDS011;8791;50.876;4.342;2022-07-17T11:43:45;6.20;;;2.80;;
17347;SDS011;8791;50.876;4.342;2022-07-17T11:46:13;4.32;;;2.78;;
17347;SDS011;8791;50.876;4.342;2022-07-17T11:48:41;4.45;;;2.72;;
17347;SDS011;8791;50.876;4.342;2022-07-17T11:51:08;8.18;;;2.60;;
17347;SDS011;8791;50.876;4.342;2022-07-17T11:53:36;3.85;;;2.35;;
17347;SDS011;8791;50.876;4.342;2022-07-17T11:56:04;3.42;;;2.42;;
17347;SDS011;8791;50.876;4.342;2022-07-17T11:58:42;2.78;;;2.00;;
17347;SDS011;8791;50.876;4.342;2022-07-17T12:01:11;3.58;;;3.15;;
17347;SDS011;8791;50.876;4.342;2022-07-17T12:03:38;5.47;;;2.80;;
17347;SDS011;8791;50.876;4.342;2022-07-17T12:06:06;2.80;;;2.47;;
17347;SDS011;8791;50.876;4.342;2022-07-17T12:08:33;5.72;;;2.30;;
17347;SDS011;8791;50.876;4.342;2022-07-17T12:11:01;5.00;;;2.92;;
17347;SDS011;8791;50.876;4.342;2022-07-17T12:13:37;4.05;;;2.58;;
17347;SDS011;8791;50.876;4.342;2022-07-17T12:16:19;6.40;;;2.45;;
17347;SDS011;8791;50.876;4.342;2022-07-17T12:18:57;5.07;;;2.90;;
17347;SDS011;8791;50.876;4.342;2022-07-17T12:21:28;4.18;;;2.40;;
17347;SDS011;8791;50.876;4.342;2022-07-17T12:23:57;4.53;;;2.67;;
17347;SDS011;8791;50.876;4.342;2022-07-17T12:26:26;6.55;;;2.72;;
17347;SDS011;8791;50.876;4.342;2022-07-17T12:28:53;4.13;;;2.50;;
17347;SDS011;8791;50.876;4.342;2022-07-17T12:31:21;4.80;;;2.40;;
17347;SDS011;8791;50.876;4.342;2022-07-17T12:33:50;6.93;;;2.75;;
17347;SDS011;8791;50.876;4.342;2022-07-17T12:36:18;5.45;;;2.58;;
17347;SDS011;8791;50.876;4.342;2022-07-17T12:38:46;3.22;;;2.35;;
17347;SDS011;8791;50.876;4.342;2022-07-17T12:41:14;5.15;;;2.40;;
17347;SDS011;8791;50.876;4.342;2022-07-17T12:43:41;2.90;;;2.05;;
17347;SDS011;8791;50.876;4.342;2022-07-17T12:46:08;3.47;;;2.60;;
17347;SDS011;8791;50.876;4.342;2022-07-17T12:48:37;3.70;;;2.50;;
17347;SDS011;8791;50.876;4.342;2022-07-17T12:51:06;2.70;;;2.22;;
17347;SDS011;8791;50.876;4.342;2022-07-17T12:53:33;2.83;;;2.40;;
17347;SDS011;8791;50.876;4.342;2022-07-17T12:56:01;3.25;;;2.53;;
17347;SDS011;8791;50.876;4.342;2022-07-17T12:58:28;4.22;;;2.67;;
17347;SDS011;8791;50.876;4.342;2022-07-17T13:00:56;5.45;;;2.35;;
17347;SDS011;8791;50.876;4.342;2022-07-17T13:03:23;3.05;;;2.25;;
17347;SDS011;8791;50.876;4.342;2022-07-17T13:05:51;3.38;;;2.42;;
17347;SDS011;8791;50.876;4.342;2022-07-17T13:08:18;3.70;;;2.22;;
17347;SDS011;8791;50.876;4.342;2022-07-17T13:10:45;7.20;;;2.25;;
17347;SDS011;8791;50.876;4.342;2022-07-17T13:13:12;4.45;;;2.70;;
17347;SDS011;8791;50.876;4.342;2022-07-17T13:15:39;4.82;;;2.50;;
17347;SDS011;8791;50.876;4.342;2022-07-17T13:18:06;5.53;;;2.13;;
17347;SDS011;8791;50.876;4.342;2022-07-17T13:20:33;3.95;;;2.65;;
17347;SDS011;8791;50.876;4.342;2022-07-17T13:23:01;5.68;;;2.55;;
17347;SDS011;8791;50.876;4.342;2022-07-17T13:25:29;3.13;;;2.33;;
17347;SDS011;8791;50.876;4.342;2022-07-17T13:27:56;7.10;;;2.55;;
17347;SDS011;8791;50.876;4.342;2022-07-17T13:30:23;6.57;;;2.53;;
17347;SDS011;8791;50.876;4.342;2022-07-17T13:32:50;3.05;;;2.70;;
17347;SDS011;8791;50.876;4.342;2022-07-17T13:35:18;3.80;;;2.38;;
17347;SDS011;8791;50.876;4.342;2022-07-17T13:37:45;3.63;;;2.72;;
17347;SDS011;8791;50.876;4.342;2022-07-17T13:40:14;7.90;;;2.38;;
17347;SDS011;8791;50.876;4.342;2022-07-17T13:42:40;2.45;;;2.20;;
17347;SDS011;8791;50.876;4.342;2022-07-17T13:45:08;2.50;;;2.28;;
17347;SDS011;8791;50.876;4.342;2022-07-17T13:47:35;3.28;;;2.00;;
17347;SDS011;8791;50.876;4.342;2022-07-17T13:50:02;2.50;;;2.00;;
17347;SDS011;8791;50.876;4.342;2022-07-17T13:52:30;7.00;;;2.25;;
17347;SDS011;8791;50.876;4.342;2022-07-17T13:54:57;3.67;;;2.47;;
17347;SDS011;8791;50.876;4.342;2022-07-17T13:57:26;3.35;;;2.50;;
17347;SDS011;8791;50.876;4.342;2022-07-17T13:59:53;2.60;;;2.40;;
17347;SDS011;8791;50.876;4.342;2022-07-17T14:02:20;2.72;;;2.35;;
17347;SDS011;8791;50.876;4.342;2022-07-17T14:04:47;3.88;;;2.50;;
17347;SDS011;8791;50.876;4.342;2022-07-17T14:07:13;2.80;;;2.38;;
17347;SDS011;8791;50.876;4.342;2022-07-17T14:09:40;10.73;;;2.45;;
17347;SDS011;8791;50.876;4.342;2022-07-17T14:12:07;4.38;;;2.35;;
17347;SDS011;8791;50.876;4.342;2022-07-17T14:14:36;7.50;;;2.47;;
17347;SDS011;8791;50.876;4.342;2022-07-17T14:17:02;2.50;;;2.30;;
17347;SDS011;8791;50.876;4.342;2022-07-17T14:19:29;13.75;;;2.67;;
17347;SDS011;8791;50.876;4.342;2022-07-17T14:21:56;2.42;;;2.05;;
17347;SDS011;8791;50.876;4.342;2022-07-17T14:24:23;6.82;;;2.40;;
17347;SDS011;8791;50.876;4.342;2022-07-17T14:26:50;4.30;;;2.50;;
17347;SDS011;8791;50.876;4.342;2022-07-17T14:29:17;2.90;;;2.17;;
17347;SDS011;8791;50.876;4.342;2022-07-17T14:31:45;3.92;;;2.45;;
17347;SDS011;8791;50.876;4.342;2022-07-17T14:34:13;4.65;;;2.30;;
17347;SDS011;8791;50.876;4.342;2022-07-17T14:36:41;3.28;;;1.98;;
17347;SDS011;8791;50.876;4.342;2022-07-17T14:39:08;3.10;;;2.35;;
17347;SDS011;8791;50.876;4.342;2022-07-17T14:41:35;3.25;;;2.50;;
17347;SDS011;8791;50.876;4.342;2022-07-17T14:44:02;2.25;;;2.05;;
17347;SDS011;8791;50.876;4.342;2022-07-17T14:46:29;4.82;;;2.53;;
17347;SDS011;8791;50.876;4.342;2022-07-17T14:48:57;2.15;;;1.92;;
17347;SDS011;8791;50.876;4.342;2022-07-17T14:51:24;2.47;;;2.28;;
17347;SDS011;8791;50.876;4.342;2022-07-17T14:53:51;2.53;;;2.28;;
17347;SDS011;8791;50.876;4.342;2022-07-17T14:56:18;3.42;;;2.60;;
17347;SDS011;8791;50.876;4.342;2022-07-17T14:58:45;2.60;;;2.38;;
17347;SDS011;8791;50.876;4.342;2022-07-17T15:01:12;3.38;;;2.20;;
17347;SDS011;8791;50.876;4.342;2022-07-17T15:03:39;5.00;;;2.40;;